createdAt,value
2022-10-09T00:01:32.732Z,13.46
2022-10-09T00:03:59.911Z,13.44
2022-10-09T00:06:33.475Z,13.43
2022-10-09T00:09:04.271Z,13.41
2022-10-09T00:11:33.825Z,13.39
2022-10-09T00:14:02.622Z,13.41
2022-10-09T00:16:29.526Z,13.42
2022-10-09T00:18:57.712Z,13.40
2022-10-09T00:21:25.991Z,13.40
2022-10-09T00:23:54.772Z,13.37
2022-10-09T00:26:22.351Z,13.36
2022-10-09T00:28:49.986Z,13.31
2022-10-09T00:31:17.365Z,13.27
2022-10-09T00:33:44.249Z,13.23
2022-10-09T00:36:22.956Z,13.21
2022-10-09T00:38:50.498Z,13.19
2022-10-09T00:41:20.918Z,13.20
2022-10-09T00:43:51.319Z,13.21
2022-10-09T00:46:48.904Z,13.22
2022-10-09T00:49:28.582Z,13.19
2022-10-09T00:51:59.141Z,13.20
2022-10-09T00:54:29.493Z,13.19
2022-10-09T00:56:56.532Z,13.19
2022-10-09T00:59:32.061Z,13.17
2022-10-09T01:01:58.944Z,13.15
2022-10-09T01:04:26.200Z,13.15
2022-10-09T01:07:14.123Z,13.14
2022-10-09T01:09:55.779Z,13.14
2022-10-09T01:12:43.105Z,13.11
2022-10-09T01:15:19.725Z,13.07
2022-10-09T01:18:12.118Z,13.07
2022-10-09T01:20:48.248Z,13.05
2022-10-09T01:23:45.870Z,13.04
2022-10-09T01:26:30.620Z,13.00
2022-10-09T01:29:01.662Z,12.98
2022-10-09T01:31:31.340Z,12.97
2022-10-09T01:34:01.813Z,12.93
2022-10-09T01:36:31.308Z,12.92
2022-10-09T01:39:01.728Z,12.91
2022-10-09T01:41:29.641Z,12.90
2022-10-09T01:43:56.417Z,12.91
2022-10-09T01:46:33.419Z,12.92
2022-10-09T01:49:08.761Z,12.94
2022-10-09T01:51:45.594Z,12.95
2022-10-09T01:54:17.569Z,12.92
2022-10-09T01:56:49.045Z,12.88
2022-10-09T01:59:30.977Z,12.89
2022-10-09T02:02:00.642Z,12.85
2022-10-09T02:04:30.202Z,12.81
2022-10-09T02:06:57.176Z,12.78
2022-10-09T02:09:26.450Z,12.79
2022-10-09T02:11:58.118Z,12.80
2022-10-09T02:14:24.915Z,12.79
2022-10-09T02:17:03.133Z,12.76
2022-10-09T02:19:35.087Z,12.75
2022-10-09T02:22:14.159Z,12.72
2022-10-09T02:24:42.624Z,12.70
2022-10-09T02:27:11.318Z,12.66
2022-10-09T02:29:43.335Z,12.64
2022-10-09T02:32:11.149Z,12.63
2022-10-09T02:34:38.281Z,12.59
2022-10-09T02:37:05.987Z,12.56
2022-10-09T02:39:33.065Z,12.60
2022-10-09T02:41:59.927Z,12.60
2022-10-09T02:44:27.071Z,12.59
2022-10-09T02:46:53.863Z,12.58
2022-10-09T02:49:30.059Z,12.58
2022-10-09T02:51:58.030Z,12.60
2022-10-09T02:54:24.778Z,12.59
2022-10-09T02:56:51.529Z,12.61
2022-10-09T02:59:18.347Z,12.62
2022-10-09T03:01:45.216Z,12.64
2022-10-09T03:04:12.156Z,12.65
2022-10-09T03:06:38.991Z,12.66
2022-10-09T03:09:05.985Z,12.67
2022-10-09T03:11:32.743Z,12.68
2022-10-09T03:13:59.609Z,12.68
2022-10-09T03:16:27.041Z,12.71
2022-10-09T03:18:54.401Z,12.76
2022-10-09T03:21:24.253Z,12.78
2022-10-09T03:23:51.342Z,12.79
2022-10-09T03:26:21.534Z,12.78
2022-10-09T03:28:50.269Z,12.79
2022-10-09T03:31:46.532Z,12.80
2022-10-09T03:34:05.583Z,12.77
2022-10-09T03:36:32.477Z,12.75
2022-10-09T03:39:00.259Z,12.74
2022-10-09T03:41:27.172Z,12.72
2022-10-09T03:43:53.905Z,12.71
2022-10-09T03:46:20.934Z,12.70
2022-10-09T03:48:47.794Z,12.70
2022-10-09T03:51:14.495Z,12.74
2022-10-09T03:53:41.285Z,12.74
2022-10-09T03:56:08.019Z,12.74
2022-10-09T03:58:34.778Z,12.73
2022-10-09T04:01:01.948Z,12.76
2022-10-09T04:03:29.175Z,12.74
2022-10-09T04:05:55.965Z,12.75
2022-10-09T04:08:28.982Z,12.77
2022-10-09T04:11:00.012Z,12.75
2022-10-09T04:13:26.929Z,12.73
2022-10-09T04:15:55.067Z,12.74
2022-10-09T04:18:23.004Z,12.76
2022-10-09T04:20:51.534Z,12.75
2022-10-09T04:23:19.952Z,12.71
2022-10-09T04:25:47.120Z,12.70
2022-10-09T04:28:25.050Z,12.68
2022-10-09T04:30:52.336Z,12.68
2022-10-09T04:33:19.483Z,12.66
2022-10-09T04:35:50.188Z,12.66
2022-10-09T04:38:18.677Z,12.62
2022-10-09T04:40:46.270Z,12.63
2022-10-09T04:43:13.044Z,12.59
2022-10-09T04:45:40.732Z,12.60
2022-10-09T04:48:07.508Z,12.63
2022-10-09T04:50:34.307Z,12.67
2022-10-09T04:53:01.260Z,12.67
2022-10-09T04:55:28.009Z,12.69
2022-10-09T04:57:54.763Z,12.72
2022-10-09T05:00:21.562Z,12.72
2022-10-09T05:02:48.784Z,12.74
2022-10-09T05:05:15.768Z,12.73
2022-10-09T05:07:42.541Z,12.72
2022-10-09T05:10:09.448Z,12.74
2022-10-09T05:12:36.243Z,12.77
2022-10-09T05:15:03.176Z,12.77
2022-10-09T05:17:29.960Z,12.76
2022-10-09T05:19:56.921Z,12.76
2022-10-09T05:22:23.746Z,12.76
2022-10-09T05:24:50.504Z,12.76
2022-10-09T05:27:17.340Z,12.75
2022-10-09T05:29:44.077Z,12.74
2022-10-09T05:32:10.872Z,12.71
2022-10-09T05:34:37.702Z,12.72
2022-10-09T05:37:04.539Z,12.69
2022-10-09T05:39:32.637Z,12.69
2022-10-09T05:41:59.390Z,12.68
2022-10-09T05:44:26.189Z,12.68
2022-10-09T05:46:52.980Z,12.66
2022-10-09T05:49:19.765Z,12.65
2022-10-09T05:51:46.620Z,12.65
2022-10-09T05:54:15.785Z,12.64
2022-10-09T05:56:43.718Z,12.64
2022-10-09T05:59:15.445Z,12.65
2022-10-09T06:01:44.840Z,12.64
2022-10-09T06:04:17.272Z,12.63
2022-10-09T06:06:44.993Z,12.59
2022-10-09T06:09:12.085Z,12.58
2022-10-09T06:11:40.290Z,12.56
2022-10-09T06:14:08.966Z,12.56
2022-10-09T06:16:38.075Z,12.59
2022-10-09T06:19:06.789Z,12.59
2022-10-09T06:21:34.292Z,12.57
2022-10-09T06:24:03.014Z,12.58
2022-10-09T06:26:30.740Z,12.57
2022-10-09T06:28:59.368Z,12.56
2022-10-09T06:31:28.966Z,12.59
2022-10-09T06:33:56.158Z,12.60
2022-10-09T06:36:25.317Z,12.60
2022-10-09T06:38:53.386Z,12.58
2022-10-09T06:41:22.949Z,12.58
2022-10-09T06:44:01.132Z,12.57
2022-10-09T06:46:37.022Z,12.57
2022-10-09T06:49:04.878Z,12.59
2022-10-09T06:51:32.691Z,12.59
2022-10-09T06:54:02.518Z,12.60
2022-10-09T06:56:31.603Z,12.60
2022-10-09T06:59:03.111Z,12.61
2022-10-09T07:01:32.634Z,12.62
2022-10-09T07:04:05.902Z,12.62
2022-10-09T07:06:35.050Z,12.64
2022-10-09T07:09:05.127Z,12.65
2022-10-09T07:11:37.102Z,12.67
2022-10-09T07:14:06.697Z,12.67
2022-10-09T07:16:41.780Z,12.65
2022-10-09T07:19:11.557Z,12.66
2022-10-09T07:21:41.753Z,12.69
2022-10-09T07:24:09.165Z,12.69
2022-10-09T07:26:38.189Z,12.71
2022-10-09T07:29:07.192Z,12.72
2022-10-09T07:31:34.229Z,12.71
2022-10-09T07:34:02.024Z,12.75
2022-10-09T07:36:28.851Z,12.79
2022-10-09T07:38:57.412Z,12.81
2022-10-09T07:41:26.813Z,12.85
2022-10-09T07:43:53.690Z,12.88
2022-10-09T07:46:23.114Z,12.92
2022-10-09T07:48:51.059Z,12.95
2022-10-09T07:51:22.541Z,12.97
2022-10-09T07:53:50.150Z,13.02
2022-10-09T07:56:22.280Z,13.07
2022-10-09T07:58:51.637Z,13.18
2022-10-09T08:01:20.524Z,13.36
2022-10-09T08:03:48.209Z,13.55
2022-10-09T08:06:15.168Z,13.59
2022-10-09T08:08:42.147Z,13.58
2022-10-09T08:11:11.189Z,13.55
2022-10-09T08:13:38.730Z,13.55
2022-10-09T08:16:06.499Z,13.54
2022-10-09T08:18:34.069Z,13.54
2022-10-09T08:21:03.433Z,13.55
2022-10-09T08:23:30.414Z,13.60
2022-10-09T08:25:57.243Z,13.64
2022-10-09T08:28:24.414Z,13.69
2022-10-09T08:30:51.408Z,13.74
2022-10-09T08:33:23.540Z,13.80
2022-10-09T08:35:51.404Z,13.83
2022-10-09T08:38:46.202Z,13.89
2022-10-09T08:41:49.854Z,13.96
2022-10-09T08:44:22.434Z,13.99
2022-10-09T08:47:08.288Z,14.02
2022-10-09T08:49:49.857Z,14.08
2022-10-09T08:52:36.971Z,14.11
2022-10-09T08:55:13.808Z,14.20
2022-10-09T08:57:40.656Z,14.27
2022-10-09T09:00:15.337Z,14.35
2022-10-09T09:03:03.507Z,14.44
2022-10-09T09:05:55.801Z,14.52
2022-10-09T09:08:55.556Z,14.66
2022-10-09T09:11:25.158Z,14.78
2022-10-09T09:14:10.853Z,14.96
2022-10-09T09:16:56.266Z,15.10
2022-10-09T09:19:34.831Z,15.22
2022-10-09T09:22:02.292Z,15.31
2022-10-09T09:24:38.447Z,15.40
2022-10-09T09:27:13.976Z,15.47
2022-10-09T09:29:48.896Z,15.54
2022-10-09T09:32:20.834Z,15.62
2022-10-09T09:34:47.807Z,15.70
2022-10-09T09:37:15.632Z,15.75
2022-10-09T09:42:33.051Z,15.92
2022-10-09T09:45:04.332Z,15.99
2022-10-09T09:47:40.625Z,16.05
2022-10-09T09:50:18.502Z,16.14
2022-10-09T09:52:55.930Z,16.23
2022-10-09T09:55:31.145Z,16.29
2022-10-09T09:58:04.324Z,16.33
2022-10-09T10:00:32.594Z,16.39
2022-10-09T10:03:18.478Z,16.43
2022-10-09T10:05:45.606Z,16.47
2022-10-09T10:08:36.546Z,16.53
2022-10-09T10:11:09.223Z,16.56
2022-10-09T10:13:47.215Z,16.59
2022-10-09T10:16:24.963Z,16.62
2022-10-09T10:18:53.459Z,16.70
2022-10-09T10:21:20.778Z,16.74
2022-10-09T10:23:58.807Z,16.73
2022-10-09T10:26:58.554Z,16.71
2022-10-09T10:29:46.858Z,16.71
2022-10-09T10:32:32.535Z,16.73
2022-10-09T10:35:01.925Z,16.75
2022-10-09T10:37:38.892Z,16.81
2022-10-09T10:40:26.640Z,16.84
2022-10-09T10:43:11.654Z,16.88
2022-10-09T10:45:44.047Z,16.92
2022-10-09T10:48:33.775Z,16.96
2022-10-09T10:51:25.328Z,17.02
2022-10-09T10:54:16.734Z,17.04
2022-10-09T10:56:49.360Z,17.07
2022-10-09T10:59:39.990Z,17.10
2022-10-09T11:02:21.808Z,17.12
2022-10-09T11:05:00.637Z,17.14
2022-10-09T11:07:42.149Z,17.14
2022-10-09T11:10:24.211Z,17.14
2022-10-09T11:13:01.453Z,17.11
2022-10-09T11:15:38.451Z,17.12
2022-10-09T11:18:43.093Z,17.11
2022-10-09T11:21:15.830Z,17.10
2022-10-09T11:23:56.741Z,17.14
2022-10-09T11:26:36.860Z,17.20
2022-10-09T11:29:18.733Z,17.28
2022-10-09T11:31:59.084Z,17.33
2022-10-09T11:34:36.245Z,17.39
2022-10-09T11:37:09.158Z,17.45
2022-10-09T11:39:38.107Z,17.46
2022-10-09T11:42:06.186Z,17.52
2022-10-09T11:44:32.924Z,17.57
2022-10-09T11:47:32.101Z,17.65
2022-10-09T11:50:32.437Z,17.69
2022-10-09T11:53:12.093Z,17.73
2022-10-09T11:55:39.270Z,17.75
2022-10-09T11:58:29.386Z,17.75
2022-10-09T12:01:22.485Z,17.74
2022-10-09T12:04:05.206Z,17.77
2022-10-09T12:06:33.389Z,17.78
2022-10-09T12:09:08.478Z,17.81
2022-10-09T12:11:35.690Z,17.84
2022-10-09T12:14:06.065Z,17.86
2022-10-09T12:16:45.807Z,17.86
2022-10-09T12:19:20.712Z,17.86
2022-10-09T12:21:52.017Z,17.87
2022-10-09T12:24:26.511Z,17.89
2022-10-09T12:26:57.059Z,17.89
2022-10-09T12:29:27.928Z,17.90
2022-10-09T12:31:59.215Z,17.95
2022-10-09T12:34:38.057Z,17.97
2022-10-09T12:37:12.486Z,17.98
2022-10-09T12:39:51.124Z,17.98
2022-10-09T12:42:23.220Z,17.95
2022-10-09T12:44:54.230Z,17.93
2022-10-09T12:47:29.532Z,17.96
2022-10-09T12:49:57.882Z,17.99
2022-10-09T12:52:48.689Z,18.02
2022-10-09T12:55:31.586Z,18.03
2022-10-09T12:58:03.636Z,18.06
2022-10-09T13:00:32.702Z,18.07
2022-10-09T13:02:59.831Z,18.11
2022-10-09T13:05:41.047Z,18.16
2022-10-09T13:08:35.191Z,18.20
2022-10-09T13:11:13.076Z,18.21
2022-10-09T13:13:40.352Z,18.23
2022-10-09T13:16:09.738Z,18.22
2022-10-09T13:18:38.299Z,18.22
2022-10-09T13:21:25.085Z,18.20
2022-10-09T13:23:51.878Z,18.21
2022-10-09T13:26:28.019Z,18.20
2022-10-09T13:28:56.541Z,18.19
2022-10-09T13:31:23.441Z,18.18
2022-10-09T13:33:50.723Z,18.20
2022-10-09T13:36:19.575Z,18.20
2022-10-09T13:38:47.926Z,18.21
2022-10-09T13:41:22.388Z,18.24
2022-10-09T13:43:51.061Z,18.27
2022-10-09T13:46:18.006Z,18.29
2022-10-09T13:48:44.980Z,18.29
2022-10-09T13:51:12.122Z,18.29
2022-10-09T13:53:39.267Z,18.32
2022-10-09T13:56:07.938Z,18.32
2022-10-09T13:58:34.685Z,18.33
2022-10-09T14:01:01.591Z,18.33
2022-10-09T14:03:28.539Z,18.34
2022-10-09T14:06:00.128Z,18.36
2022-10-09T14:08:34.203Z,18.36
2022-10-09T14:11:15.141Z,18.34
2022-10-09T14:13:41.988Z,18.33
2022-10-09T14:16:11.266Z,18.33
2022-10-09T14:18:38.064Z,18.31
2022-10-09T14:21:15.321Z,18.31
2022-10-09T14:23:43.287Z,18.34
2022-10-09T14:26:10.094Z,18.34
2022-10-09T14:28:37.570Z,18.31
2022-10-09T14:31:17.987Z,18.29
2022-10-09T14:33:46.153Z,18.25
2022-10-09T14:36:16.261Z,18.26
2022-10-09T14:38:43.131Z,18.24
2022-10-09T14:41:10.537Z,18.21
2022-10-09T14:43:37.339Z,18.21
2022-10-09T14:46:05.050Z,18.20
2022-10-09T14:48:34.998Z,18.15
2022-10-09T14:51:07.214Z,18.15
2022-10-09T14:53:34.371Z,18.14
2022-10-09T14:56:06.211Z,18.14
2022-10-09T14:58:35.013Z,18.13
2022-10-09T15:01:02.433Z,18.12
2022-10-09T15:03:30.759Z,18.09
2022-10-09T15:06:06.089Z,18.05
2022-10-09T15:08:35.967Z,18.01
2022-10-09T15:11:03.281Z,18.01
2022-10-09T15:13:32.030Z,17.99
2022-10-09T15:16:03.661Z,17.98
2022-10-09T15:18:31.842Z,17.97
2022-10-09T15:20:59.948Z,17.97
2022-10-09T15:23:30.742Z,17.97
2022-10-09T15:25:59.579Z,17.99
2022-10-09T15:28:35.853Z,17.98
2022-10-09T15:31:19.986Z,17.98
2022-10-09T15:33:46.769Z,17.95
2022-10-09T15:36:13.505Z,17.95
2022-10-09T15:38:40.637Z,17.95
2022-10-09T15:41:07.455Z,17.93
2022-10-09T15:43:37.654Z,17.92
2022-10-09T15:46:07.284Z,17.87
2022-10-09T15:48:35.183Z,17.82
2022-10-09T15:51:07.178Z,17.78
2022-10-09T15:53:33.973Z,17.74
2022-10-09T15:56:05.543Z,17.69
2022-10-09T15:58:32.818Z,17.66
2022-10-09T16:01:07.024Z,17.61
2022-10-09T16:03:37.137Z,17.58
2022-10-09T16:06:07.514Z,17.56
2022-10-09T16:08:34.776Z,17.53
2022-10-09T16:11:05.854Z,17.50
2022-10-09T16:13:35.141Z,17.48
2022-10-09T16:16:05.643Z,17.47
2022-10-09T16:18:33.017Z,17.45
2022-10-09T16:21:07.720Z,17.47
2022-10-09T16:23:35.012Z,17.41
2022-10-09T16:26:04.242Z,17.36
2022-10-09T16:28:31.450Z,17.31
2022-10-09T16:30:58.517Z,17.26
2022-10-09T16:33:25.772Z,17.23
2022-10-09T16:35:52.560Z,17.20
2022-10-09T16:38:28.774Z,17.20
2022-10-09T16:41:02.926Z,17.19
2022-10-09T16:43:33.997Z,17.17
2022-10-09T16:46:16.932Z,17.17
2022-10-09T16:48:44.356Z,17.15
2022-10-09T16:51:17.145Z,17.13
2022-10-09T16:53:44.062Z,17.15
2022-10-09T16:56:16.283Z,17.11
2022-10-09T16:58:44.164Z,17.06
2022-10-09T17:01:12.109Z,17.02
2022-10-09T17:03:41.385Z,16.97
2022-10-09T17:06:10.459Z,16.91
2022-10-09T17:08:37.569Z,16.89
2022-10-09T17:11:09.420Z,16.86
2022-10-09T17:13:37.251Z,16.84
2022-10-09T17:16:18.457Z,16.83
2022-10-09T17:18:46.551Z,16.82
2022-10-09T17:21:14.404Z,16.77
2022-10-09T17:23:41.730Z,16.76
2022-10-09T17:26:11.956Z,16.75
2022-10-09T17:28:40.194Z,16.73
2022-10-09T17:31:09.641Z,16.72
2022-10-09T17:33:41.261Z,16.69
2022-10-09T17:36:09.108Z,16.67
2022-10-09T17:38:36.275Z,16.65
2022-10-09T17:41:07.931Z,16.63
2022-10-09T17:43:34.868Z,16.62
2022-10-09T17:46:01.815Z,16.61
2022-10-09T17:48:29.338Z,16.59
2022-10-09T17:50:58.058Z,16.58
2022-10-09T17:53:25.268Z,16.55
2022-10-09T17:55:54.161Z,16.51
2022-10-09T17:58:26.355Z,16.47
2022-10-09T18:00:53.193Z,16.43
2022-10-09T18:03:20.700Z,16.40
2022-10-09T18:05:49.372Z,16.34
2022-10-09T18:08:20.205Z,16.30
2022-10-09T18:10:47.206Z,16.26
2022-10-09T18:13:14.394Z,16.26
2022-10-09T18:15:43.365Z,16.24
2022-10-09T18:18:20.347Z,16.21
2022-10-09T18:20:47.374Z,16.17
2022-10-09T18:23:14.298Z,16.14
2022-10-09T18:25:42.973Z,16.10
2022-10-09T18:28:11.101Z,16.10
2022-10-09T18:30:46.450Z,16.09
2022-10-09T18:33:13.268Z,16.08
2022-10-09T18:35:40.279Z,16.06
2022-10-09T18:38:15.591Z,16.03
2022-10-09T18:40:45.858Z,16.04
2022-10-09T18:43:12.989Z,16.01
2022-10-09T18:45:45.975Z,15.99
2022-10-09T18:48:23.511Z,15.96
2022-10-09T18:50:50.446Z,15.93
2022-10-09T18:53:17.359Z,15.92
2022-10-09T18:55:44.451Z,15.91
2022-10-09T18:58:12.832Z,15.88
2022-10-09T19:00:40.331Z,15.86
2022-10-09T19:03:07.437Z,15.86
2022-10-09T19:05:34.393Z,15.85
2022-10-09T19:08:01.165Z,15.82
2022-10-09T19:10:28.085Z,15.79
2022-10-09T19:12:55.355Z,15.76
2022-10-09T19:15:22.520Z,15.76
2022-10-09T19:17:49.775Z,15.71
2022-10-09T19:20:16.738Z,15.69
2022-10-09T19:22:43.558Z,15.65
2022-10-09T19:25:11.086Z,15.62
2022-10-09T19:27:38.115Z,15.59
2022-10-09T19:30:05.851Z,15.56
2022-10-09T19:32:32.584Z,15.55
2022-10-09T19:34:59.428Z,15.54
2022-10-09T19:37:29.608Z,15.54
2022-10-09T19:39:57.469Z,15.53
2022-10-09T19:42:25.020Z,15.50
2022-10-09T19:44:51.816Z,15.47
2022-10-09T19:47:19.555Z,15.41
2022-10-09T19:49:46.462Z,15.38
2022-10-09T19:52:13.401Z,15.35
2022-10-09T19:54:40.464Z,15.33
2022-10-09T19:57:07.440Z,15.31
2022-10-09T19:59:34.242Z,15.28
2022-10-09T20:02:01.020Z,15.28
2022-10-09T20:04:27.983Z,15.26
2022-10-09T20:06:54.764Z,15.25
2022-10-09T20:09:21.681Z,15.23
2022-10-09T20:11:48.767Z,15.21
2022-10-09T20:14:15.631Z,15.20
2022-10-09T20:16:42.532Z,15.19
2022-10-09T20:19:09.357Z,15.20
2022-10-09T20:21:36.206Z,15.20
2022-10-09T20:24:03.117Z,15.16
2022-10-09T20:26:31.675Z,15.15
2022-10-09T20:28:58.986Z,15.12
2022-10-09T20:31:27.145Z,15.07
2022-10-09T20:33:55.877Z,15.05
2022-10-09T20:36:35.449Z,15.04
2022-10-09T20:39:05.696Z,15.01
2022-10-09T20:41:33.337Z,14.98
2022-10-09T20:44:01.803Z,14.98
2022-10-09T20:46:31.249Z,14.96
2022-10-09T20:48:58.178Z,14.98
2022-10-09T20:51:26.121Z,14.99
2022-10-09T20:53:58.758Z,14.98
2022-10-09T20:56:29.078Z,14.97
2022-10-09T20:58:57.262Z,14.97
2022-10-09T21:01:24.287Z,14.96
2022-10-09T21:03:52.139Z,14.96
2022-10-09T21:06:21.154Z,14.96
2022-10-09T21:08:48.378Z,14.96
2022-10-09T21:11:17.393Z,14.95
2022-10-09T21:13:45.796Z,14.99
2022-10-09T21:16:15.669Z,15.02
2022-10-09T21:18:42.456Z,15.03
2022-10-09T21:21:15.579Z,15.06
2022-10-09T21:23:43.857Z,15.06
2022-10-09T21:26:17.752Z,15.06
2022-10-09T21:28:44.802Z,15.02
2022-10-09T21:31:15.157Z,15.02
2022-10-09T21:33:41.910Z,15.03
2022-10-09T21:36:19.747Z,15.05
2022-10-09T21:38:46.568Z,15.08
2022-10-09T21:41:13.516Z,15.07
2022-10-09T21:43:40.315Z,15.11
2022-10-09T21:46:07.086Z,15.13
2022-10-09T21:48:33.899Z,15.15
2022-10-09T21:51:00.762Z,15.16
2022-10-09T21:53:27.638Z,15.16
2022-10-09T21:55:54.436Z,15.11
2022-10-09T21:58:23.842Z,15.06
2022-10-09T22:01:01.786Z,15.06
2022-10-09T22:03:31.504Z,15.06
2022-10-09T22:05:59.632Z,15.04
2022-10-09T22:08:27.655Z,15.03
2022-10-09T22:10:54.456Z,15.01
2022-10-09T22:13:21.929Z,14.95
2022-10-09T22:15:51.301Z,14.92
2022-10-09T22:18:20.365Z,14.94
2022-10-09T22:20:50.276Z,14.93
2022-10-09T22:23:21.263Z,14.91
2022-10-09T22:25:59.262Z,14.91
2022-10-09T22:28:26.718Z,14.90
2022-10-09T22:31:08.916Z,14.89
2022-10-09T22:33:36.178Z,14.87
2022-10-09T22:36:15.711Z,14.88
2022-10-09T22:38:44.071Z,14.87
2022-10-09T22:41:14.144Z,14.85
2022-10-09T22:43:42.009Z,14.82
2022-10-09T22:46:18.912Z,14.81
2022-10-09T22:48:46.105Z,14.80
2022-10-09T22:51:15.996Z,14.77
2022-10-09T22:53:44.308Z,14.75
2022-10-09T22:56:17.302Z,14.71
2022-10-09T22:58:44.768Z,14.69
2022-10-09T23:01:19.195Z,14.66
2022-10-09T23:03:46.013Z,14.67
2022-10-09T23:06:16.069Z,14.70
2022-10-09T23:08:45.152Z,14.71
2022-10-09T23:11:13.078Z,14.72
2022-10-09T23:13:40.085Z,14.73
2022-10-09T23:16:09.756Z,14.73
2022-10-09T23:18:36.540Z,14.75
2022-10-09T23:21:05.351Z,14.73
2022-10-09T23:23:34.164Z,14.74
2022-10-09T23:26:13.631Z,14.74
2022-10-09T23:28:41.494Z,14.73
2022-10-09T23:31:13.227Z,14.71
2022-10-09T23:33:41.513Z,14.69
2022-10-09T23:36:09.963Z,14.68
2022-10-09T23:38:37.435Z,14.65
2022-10-09T23:41:08.214Z,14.63
2022-10-09T23:43:37.149Z,14.64
2022-10-09T23:46:06.333Z,14.64
2022-10-09T23:48:34.337Z,14.62
2022-10-09T23:51:01.450Z,14.60
2022-10-09T23:53:28.817Z,14.60
2022-10-09T23:55:55.633Z,14.57
2022-10-09T23:58:26.374Z,14.58
